Syracuse, NY (13201)

3:35 PM EDT on May 05, 2015 (GMT -0400)
MoST* - Armory Square | | Change Station
CLOSE
Current Station
Personal Weather Station
Location: Syracuse, NY
Elevation: 400 ft
Nearby Weather Stations

Elev 400 ft 43.05 °N, 76.16 °W | Updated 24 seconds ago

Overcast
Overcast
71.3 °F
Feels Like 77 °F
N
1.0
Wind Variable Wind from NNW
Gusts 7.0 mph

Today
High -- | Low -- °F
--% Chance of Precip.
Yesterday
High -- | Low -- °F
Precip. -- in
5:53 AM 8:09 PM
Full, 97% visible
Pressure 30.24 in
Visibility 10.0 miles
Clouds Scattered Clouds 4900 ft
Mostly Cloudy 16000 ft
Overcast 20000 ft
Heat Index 77 °F
Dew Point 44 °F
Humidity 37%
Rainfall 0.00 in
Snow Depth Not available.
UV 2.7 out of 12
Pollen 6.20 out of 12
Air Quality Not available.
Flu Activity Widespread
METAR KSYR 051854Z 00000KT 10SM SCT049 BKN160 OVC200 22/08 A3025 RMK AO2 SLP239 T02170083

More Conditions Fewer Conditions

Pressure 30.24 in
Visibility 10.0 miles
Clouds Scattered Clouds 4900 ft
Mostly Cloudy 16000 ft
Overcast 20000 ft
Heat Index 77 °F
Dew Point 44 °F
Humidity 37%
Rainfall 0.00 in
Snow Depth Not available.
UV 2.7 out of 12
Pollen 6.20 out of 12
Air Quality Not available.
Flu Activity Widespread
METAR KSYR 051854Z 00000KT 10SM SCT049 BKN160 OVC200 22/08 A3025 RMK AO2 SLP239 T02170083

More Conditions Fewer Conditions

10-Day Weather Forecast

Almanac

Astronomy

May. 05, 2015 Rise Set
Actual Time
Civil Twilight
Nautical Twilight
Astronomical Twilight
Moon
Length of Visible Light
Length of Day
Tomorrow will be .
, % of the Moon is Illuminated

Today's Extremes

State Highs State Lows

Community

WunderPhotos

Upload Photos

1,818,957 photos uploaded!

WunderBlogs® & News

Nearby

Air Quality

  Air Quality AQ Index Pollutant
Not available.

Snow Depth

Station Depth Elevation

Earthquake Activity

City Distance Mag. Time & Date
Minimum magnitude displayed is 2.5.

Coastal Water Temperatures

Place Temperature

Stations

Nearby Weather Stations

Station Location Temp. Windchill Dew Point Humidity Wind Precip. Elev Updated Type